Time;durP1;ratioP1;P1;durP2;ratioP2;P2;SDS_P1;SDS_P2;PMS_P1;PMS_P2;Temp;Humidity;BMP_temperature;BMP_pressure;BME280_temperature;BME280_humidity;BME280_pressure;Samples;Min_cycle;Max_cycle;Signal;HPM_P1;HPM_P2
2023/10/22 00:00:14;;;;;;;6.22;3.25;;;12.80;99.90;;;;;;5105393;28;20035;-67
2023/10/22 00:02:39;;;;;;;7.05;3.95;;;12.80;99.90;;;;;;5106814;28;20022;-67
2023/10/22 00:05:07;;;;;;;6.90;3.03;;;12.80;99.90;;;;;;5106057;28;20046;-67
2023/10/22 00:07:33;;;;;;;6.22;3.70;;;12.80;99.90;;;;;;5104526;28;20032;-67
2023/10/22 00:09:59;;;;;;;5.55;3.05;;;12.80;99.90;;;;;;5101971;28;20015;-67
2023/10/22 00:12:25;;;;;;;6.55;3.75;;;12.80;99.90;;;;;;5106223;28;20024;-67
2023/10/22 00:14:52;;;;;;;5.35;3.35;;;12.80;99.90;;;;;;5110902;28;20102;-67
2023/10/22 00:17:17;;;;;;;6.15;3.50;;;12.80;99.90;;;;;;5110615;28;20524;-68
2023/10/22 00:19:43;;;;;;;7.13;4.30;;;12.80;99.90;;;;;;5110634;28;20042;-68
2023/10/22 00:22:12;;;;;;;6.97;3.70;;;12.80;99.90;;;;;;5109621;28;20023;-68
2023/10/22 00:24:38;;;;;;;5.72;3.05;;;12.80;99.90;;;;;;5109134;28;20035;-68
2023/10/22 00:27:04;;;;;;;7.03;3.70;;;12.80;99.90;;;;;;5108326;28;20038;-68
2023/10/22 00:29:30;;;;;;;5.03;3.40;;;12.80;99.90;;;;;;5108965;28;20497;-67
2023/10/22 00:31:55;;;;;;;7.78;3.80;;;12.70;99.90;;;;;;5107046;28;20020;-67
2023/10/22 00:34:21;;;;;;;5.22;3.53;;;12.70;99.90;;;;;;5098368;28;20036;-67
2023/10/22 00:36:47;;;;;;;6.80;3.70;;;12.70;99.90;;;;;;5101347;28;20016;-67
2023/10/22 00:39:12;;;;;;;6.65;4.10;;;12.70;99.90;;;;;;5099499;28;20016;-67
2023/10/22 00:41:38;;;;;;;6.25;4.07;;;12.80;99.90;;;;;;5103565;28;20425;-68
2023/10/22 00:44:03;;;;;;;8.13;5.13;;;12.80;99.90;;;;;;5105314;28;20060;-67
2023/10/22 00:46:29;;;;;;;7.38;4.78;;;12.80;99.90;;;;;;5104008;28;20115;-67
2023/10/22 00:48:56;;;;;;;8.55;5.30;;;12.80;99.90;;;;;;5107325;28;20227;-67
2023/10/22 00:51:23;;;;;;;11.20;5.80;;;12.80;99.90;;;;;;5107210;28;20027;-66
2023/10/22 00:53:49;;;;;;;10.73;6.90;;;12.80;99.90;;;;;;5104515;28;20039;-66
2023/10/22 00:56:15;;;;;;;11.45;7.43;;;12.90;99.90;;;;;;5106261;28;20480;-66
2023/10/22 00:58:43;;;;;;;11.25;7.07;;;12.80;99.90;;;;;;5104415;28;20034;-67
2023/10/22 01:01:09;;;;;;;13.70;7.55;;;12.80;99.90;;;;;;5106422;28;20365;-67
2023/10/22 01:03:36;;;;;;;13.25;7.50;;;12.80;99.90;;;;;;5101001;28;20360;-67
2023/10/22 01:06:05;;;;;;;10.75;7.57;;;12.90;99.90;;;;;;5096009;28;20036;-67
2023/10/22 01:08:36;;;;;;;13.32;9.35;;;12.90;99.90;;;;;;5098367;28;20456;-68
2023/10/22 01:11:09;;;;;;;17.00;9.00;;;12.90;99.90;;;;;;5096313;28;20062;-68
2023/10/22 01:13:36;;;;;;;17.50;11.00;;;12.90;99.90;;;;;;5097414;28;20051;-67
2023/10/22 01:16:02;;;;;;;19.23;10.63;;;12.90;99.90;;;;;;5096066;28;20024;-66
2023/10/22 01:18:27;;;;;;;17.35;9.98;;;12.90;99.90;;;;;;5097919;28;20024;-66
2023/10/22 01:20:53;;;;;;;16.65;9.32;;;12.90;99.90;;;;;;5097877;28;20084;-66
2023/10/22 01:23:19;;;;;;;13.98;8.88;;;12.90;99.90;;;;;;5098217;28;20031;-67
2023/10/22 01:25:44;;;;;;;20.13;11.82;;;13.00;99.90;;;;;;5098041;28;20024;-67
2023/10/22 01:28:10;;;;;;;13.77;8.70;;;13.00;99.90;;;;;;5099280;28;20117;-67
2023/10/22 01:30:35;;;;;;;16.63;9.27;;;13.00;99.90;;;;;;5110043;28;20103;-66
2023/10/22 01:33:01;;;;;;;17.05;8.77;;;13.10;99.90;;;;;;5110116;28;20489;-67
2023/10/22 01:35:26;;;;;;;16.33;8.57;;;13.10;99.90;;;;;;5111087;28;20030;-66
2023/10/22 01:37:52;;;;;;;17.95;9.30;;;13.10;99.90;;;;;;5104589;28;20032;-67
2023/10/22 01:40:18;;;;;;;17.25;9.18;;;13.20;99.90;;;;;;5107399;28;20066;-66
2023/10/22 01:42:45;;;;;;;16.42;9.48;;;13.20;99.90;;;;;;5106925;28;20051;-67
2023/10/22 01:45:11;;;;;;;19.48;9.13;;;13.30;99.90;;;;;;5108067;28;20031;-66
2023/10/22 01:47:37;;;;;;;15.68;9.13;;;13.40;99.90;;;;;;5108550;28;20077;-67
2023/10/22 01:50:04;;;;;;;16.40;9.02;;;13.40;99.90;;;;;;5107319;28;20067;-66
2023/10/22 01:52:30;;;;;;;15.35;7.82;;;13.40;99.90;;;;;;5104813;28;20066;-67
2023/10/22 01:54:56;;;;;;;17.45;7.85;;;13.40;99.90;;;;;;5106778;28;20460;-66
2023/10/22 01:57:21;;;;;;;15.07;6.93;;;13.50;99.90;;;;;;5108421;28;20115;-66
2023/10/22 01:59:47;;;;;;;11.75;6.95;;;13.50;99.90;;;;;;5104703;28;20030;-66
2023/10/22 02:02:13;;;;;;;14.48;7.10;;;13.50;99.90;;;;;;5103886;28;20432;-66
2023/10/22 02:04:38;;;;;;;14.57;5.78;;;13.50;99.90;;;;;;5106073;28;20039;-66
2023/10/22 02:07:04;;;;;;;14.20;6.50;;;13.50;99.90;;;;;;5109322;28;20051;-67
2023/10/22 02:09:30;;;;;;;13.77;6.13;;;13.50;99.90;;;;;;5109737;28;20452;-67
2023/10/22 02:11:56;;;;;;;12.02;5.85;;;13.40;99.90;;;;;;5108146;28;20094;-66
2023/10/22 02:14:22;;;;;;;16.38;6.47;;;13.40;99.90;;;;;;5109560;28;20027;-66
2023/10/22 02:16:47;;;;;;;20.65;6.90;;;13.40;99.90;;;;;;5107766;28;20016;-66
2023/10/22 02:19:13;;;;;;;17.90;5.88;;;13.40;99.90;;;;;;5109104;28;20372;-66
2023/10/22 02:21:38;;;;;;;11.25;5.13;;;13.50;99.90;;;;;;5108703;28;20062;-66
2023/10/22 02:24:04;;;;;;;13.05;4.63;;;13.50;99.90;;;;;;5106831;28;20032;-67
2023/10/22 02:26:30;;;;;;;14.68;5.00;;;13.50;99.90;;;;;;5105546;28;20386;-66
2023/10/22 02:28:55;;;;;;;13.10;5.15;;;13.50;99.90;;;;;;5106947;28;20028;-67
2023/10/22 02:31:21;;;;;;;14.77;3.08;;;13.60;99.90;;;;;;5106951;28;20372;-66
2023/10/22 02:33:46;;;;;;;18.35;2.97;;;13.60;99.90;;;;;;5105871;28;20357;-68
2023/10/22 02:36:12;;;;;;;11.48;2.53;;;13.60;99.90;;;;;;5101144;28;20062;-68
2023/10/22 02:38:39;;;;;;;12.10;2.47;;;13.60;99.90;;;;;;5105677;28;20110;-68
2023/10/22 02:41:04;;;;;;;15.60;2.65;;;13.60;99.90;;;;;;5103881;28;20032;-68
2023/10/22 02:43:31;;;;;;;16.50;2.60;;;13.50;99.90;;;;;;5104470;28;20024;-68
2023/10/22 02:45:56;;;;;;;21.17;3.45;;;13.50;99.90;;;;;;5102038;28;20055;-67
2023/10/22 02:48:25;;;;;;;21.95;4.13;;;13.50;99.90;;;;;;5106311;28;20464;-68
2023/10/22 02:50:51;;;;;;;26.60;4.18;;;13.50;99.90;;;;;;5101453;28;20053;-68
2023/10/22 02:53:17;;;;;;;23.38;4.25;;;13.40;99.90;;;;;;5108063;28;20048;-68
2023/10/22 02:55:45;;;;;;;20.08;3.75;;;13.40;99.90;;;;;;5106080;28;20024;-68
2023/10/22 02:58:11;;;;;;;21.92;3.75;;;13.40;99.90;;;;;;5103619;28;20939;-68
2023/10/22 03:00:36;;;;;;;21.83;3.33;;;13.30;99.90;;;;;;5102483;28;20054;-69
2023/10/22 03:03:02;;;;;;;19.88;3.53;;;13.30;99.90;;;;;;5104444;28;20103;-68
2023/10/22 03:05:36;;;;;;;25.80;3.17;;;13.30;99.90;;;;;;5106359;28;20024;-68
2023/10/22 03:08:03;;;;;;;15.95;3.75;;;13.20;99.90;;;;;;5103832;28;20020;-70
2023/10/22 03:10:29;;;;;;;18.70;3.30;;;13.20;99.90;;;;;;5103605;28;20104;-68
2023/10/22 03:12:54;;;;;;;20.08;3.83;;;13.20;99.90;;;;;;5104429;28;20407;-68
2023/10/22 03:15:20;;;;;;;23.08;3.63;;;13.20;99.90;;;;;;5105956;28;20028;-67
2023/10/22 03:17:45;;;;;;;14.93;3.75;;;13.20;99.90;;;;;;5103585;28;20023;-67
2023/10/22 03:20:11;;;;;;;19.00;4.55;;;13.20;99.90;;;;;;5106084;28;20147;-67
2023/10/22 03:22:37;;;;;;;15.90;4.30;;;13.20;99.90;;;;;;5107510;28;20539;-69
2023/10/22 03:25:07;;;;;;;15.40;4.50;;;13.10;99.90;;;;;;5102101;28;20051;-69
2023/10/22 03:27:33;;;;;;;17.77;5.00;;;13.10;99.90;;;;;;5105982;28;20027;-69
2023/10/22 03:29:59;;;;;;;18.70;4.97;;;13.10;99.90;;;;;;5102934;28;20360;-69
2023/10/22 03:32:25;;;;;;;14.25;5.03;;;13.10;99.90;;;;;;5102523;28;20023;-68
2023/10/22 03:34:50;;;;;;;13.13;4.10;;;13.00;99.90;;;;;;5105684;28;20032;-67
2023/10/22 03:37:16;;;;;;;14.98;3.58;;;13.00;99.90;;;;;;5103584;28;20028;-67
2023/10/22 03:39:43;;;;;;;12.45;3.40;;;12.90;99.90;;;;;;5106526;28;20387;-67
2023/10/22 03:42:09;;;;;;;14.57;2.88;;;12.80;99.90;;;;;;5105396;28;20032;-67
2023/10/22 03:44:34;;;;;;;8.93;2.17;;;12.70;99.90;;;;;;5104938;28;20573;-66
2023/10/22 03:47:00;;;;;;;10.10;2.22;;;12.70;99.90;;;;;;5105611;28;20043;-66
2023/10/22 03:49:25;;;;;;;8.00;1.95;;;12.60;99.90;;;;;;5103528;28;20138;-67
2023/10/22 03:51:51;;;;;;;8.88;2.10;;;12.60;99.90;;;;;;5104773;28;20043;-67
2023/10/22 03:54:16;;;;;;;11.95;2.15;;;12.60;99.90;;;;;;5106116;28;20032;-66
2023/10/22 03:56:42;;;;;;;8.98;2.17;;;12.50;99.90;;;;;;5104849;28;20058;-66
2023/10/22 03:59:07;;;;;;;7.57;2.13;;;12.40;99.90;;;;;;5101530;28;20089;-66
2023/10/22 04:01:33;;;;;;;5.80;1.88;;;12.40;99.90;;;;;;5101974;28;20056;-66
2023/10/22 04:03:58;;;;;;;8.48;2.10;;;12.40;99.90;;;;;;5105384;28;20474;-66
2023/10/22 04:06:24;;;;;;;8.75;2.38;;;12.40;99.90;;;;;;5107220;28;20471;-66
2023/10/22 04:08:50;;;;;;;8.63;1.90;;;12.40;99.90;;;;;;5103911;28;20435;-66
2023/10/22 04:11:19;;;;;;;4.68;1.80;;;12.40;99.90;;;;;;5108535;28;20498;-66
2023/10/22 04:13:45;;;;;;;9.43;2.08;;;12.40;99.90;;;;;;5108179;28;20070;-66
2023/10/22 04:16:15;;;;;;;6.47;2.10;;;12.40;99.90;;;;;;5105663;28;20452;-66
2023/10/22 04:18:40;;;;;;;8.80;1.83;;;12.40;99.90;;;;;;5105557;28;20024;-66
2023/10/22 04:21:15;;;;;;;10.57;2.20;;;12.40;99.90;;;;;;5102649;28;20047;-66
2023/10/22 04:23:41;;;;;;;5.90;2.00;;;12.40;99.90;;;;;;5103468;28;20020;-66
2023/10/22 04:26:14;;;;;;;7.88;2.30;;;12.40;99.90;;;;;;5102637;28;20077;-66
2023/10/22 04:28:42;;;;;;;12.20;2.72;;;12.40;99.90;;;;;;5105506;28;20107;-66
2023/10/22 04:31:08;;;;;;;6.68;2.13;;;12.40;99.90;;;;;;5102864;28;20023;-66
2023/10/22 04:33:35;;;;;;;9.90;2.60;;;12.40;99.90;;;;;;5107752;28;20034;-66
2023/10/22 04:36:00;;;;;;;10.00;2.03;;;12.40;99.90;;;;;;5102739;28;20020;-66
2023/10/22 04:38:26;;;;;;;11.60;2.58;;;12.40;99.90;;;;;;5099914;28;20387;-66
2023/10/22 04:40:51;;;;;;;9.48;2.22;;;12.40;99.90;;;;;;5102994;28;20380;-67
2023/10/22 04:43:17;;;;;;;8.52;1.95;;;12.40;99.90;;;;;;5104129;28;20404;-66
2023/10/22 04:45:49;;;;;;;8.93;1.90;;;12.40;99.90;;;;;;5104778;28;20023;-66
2023/10/22 04:48:15;;;;;;;7.38;1.77;;;12.50;99.90;;;;;;5105785;28;20373;-66
2023/10/22 04:50:42;;;;;;;10.15;1.67;;;12.50;99.90;;;;;;5099148;28;20084;-67
2023/10/22 04:53:08;;;;;;;9.63;2.15;;;12.60;99.90;;;;;;5105577;28;20074;-66
2023/10/22 04:55:34;;;;;;;7.68;1.88;;;12.60;99.90;;;;;;5104846;28;20054;-66
2023/10/22 04:58:01;;;;;;;5.63;1.52;;;12.60;99.90;;;;;;5102877;28;20553;-66
2023/10/22 05:00:27;;;;;;;7.72;1.85;;;12.60;99.90;;;;;;5102026;28;20066;-66
2023/10/22 05:02:53;;;;;;;8.02;2.20;;;12.60;99.90;;;;;;5105511;28;20066;-66
2023/10/22 05:05:20;;;;;;;6.35;1.73;;;12.60;99.90;;;;;;5096738;28;20460;-67
2023/10/22 05:07:46;;;;;;;10.25;2.15;;;12.70;99.90;;;;;;5103115;28;20038;-66
2023/10/22 05:10:12;;;;;;;7.50;2.03;;;12.60;99.90;;;;;;5102958;28;20153;-66
2023/10/22 05:12:38;;;;;;;5.25;1.50;;;12.60;99.90;;;;;;5101786;28;20125;-66
2023/10/22 05:15:04;;;;;;;7.22;1.88;;;12.60;99.90;;;;;;5102572;28;20091;-66
2023/10/22 05:17:29;;;;;;;7.53;1.63;;;12.60;99.90;;;;;;5101576;28;20378;-66
2023/10/22 05:19:55;;;;;;;6.35;1.30;;;12.70;99.90;;;;;;5101909;28;20036;-66
2023/10/22 05:22:21;;;;;;;5.22;1.40;;;12.70;99.90;;;;;;5100597;28;20052;-66
2023/10/22 05:24:49;;;;;;;5.75;1.40;;;12.70;99.90;;;;;;5101678;28;20627;-66
2023/10/22 05:27:16;;;;;;;4.88;1.05;;;12.60;99.90;;;;;;5101049;28;20028;-66
2023/10/22 05:29:43;;;;;;;6.07;1.40;;;12.60;99.90;;;;;;5102005;28;20427;-66
2023/10/22 05:32:09;;;;;;;6.38;1.60;;;12.60;99.90;;;;;;5103939;28;20020;-66
2023/10/22 05:34:34;;;;;;;7.18;1.50;;;12.70;99.90;;;;;;5099154;28;20030;-66
2023/10/22 05:37:00;;;;;;;9.18;1.35;;;12.70;99.90;;;;;;5099113;28;20419;-66
2023/10/22 05:39:26;;;;;;;5.53;0.93;;;12.70;99.90;;;;;;5104059;28;20382;-66
2023/10/22 05:41:51;;;;;;;8.90;1.58;;;12.70;99.90;;;;;;5100937;28;20024;-66
2023/10/22 05:44:18;;;;;;;7.80;1.30;;;12.70;99.90;;;;;;5104198;28;20023;-66
2023/10/22 05:46:44;;;;;;;6.50;1.30;;;12.70;99.90;;;;;;5098721;28;20032;-66
2023/10/22 05:49:11;;;;;;;5.38;1.05;;;12.70;99.90;;;;;;5100358;28;20039;-65
2023/10/22 05:51:38;;;;;;;6.88;1.23;;;12.70;99.90;;;;;;5103135;28;20035;-65
2023/10/22 05:54:04;;;;;;;7.57;1.60;;;12.70;99.90;;;;;;5102735;28;20511;-66
2023/10/22 05:56:32;;;;;;;8.68;1.45;;;12.70;99.90;;;;;;5100740;28;20032;-66
2023/10/22 05:58:59;;;;;;;4.38;0.93;;;12.70;99.90;;;;;;5100348;28;20051;-66
2023/10/22 06:01:24;;;;;;;6.00;1.40;;;12.70;99.90;;;;;;5099615;28;20616;-65
2023/10/22 06:03:50;;;;;;;8.38;1.60;;;12.70;99.90;;;;;;5104933;28;20102;-66
2023/10/22 06:06:22;;;;;;;6.13;1.08;;;12.70;99.90;;;;;;5100159;28;20023;-66
2023/10/22 06:08:48;;;;;;;8.30;1.55;;;12.70;99.90;;;;;;5103517;28;20475;-66
2023/10/22 06:11:14;;;;;;;8.52;1.15;;;12.70;99.90;;;;;;5102339;28;20107;-66
2023/10/22 06:13:40;;;;;;;4.90;0.98;;;12.70;99.90;;;;;;5102351;28;20455;-66
2023/10/22 06:16:05;;;;;;;6.07;1.30;;;12.60;99.90;;;;;;5105491;28;20529;-66
2023/10/22 06:18:31;;;;;;;5.70;1.10;;;12.60;99.90;;;;;;5103660;28;20493;-66
2023/10/22 06:20:56;;;;;;;4.35;1.27;;;12.60;99.90;;;;;;5106738;28;20070;-66
2023/10/22 06:23:22;;;;;;;6.40;1.02;;;12.60;99.90;;;;;;5103137;28;20032;-66
2023/10/22 06:25:48;;;;;;;8.77;1.33;;;12.60;99.90;;;;;;5096455;28;20035;-66
2023/10/22 06:28:14;;;;;;;6.97;1.30;;;12.70;99.90;;;;;;5101465;28;20422;-66
2023/10/22 06:30:40;;;;;;;7.35;1.10;;;12.70;99.90;;;;;;5110177;28;20471;-66
2023/10/22 06:33:06;;;;;;;5.30;1.30;;;12.70;99.90;;;;;;5096144;28;20024;-65
2023/10/22 06:35:32;;;;;;;3.70;1.05;;;12.70;99.90;;;;;;5089492;28;20066;-66
2023/10/22 06:37:58;;;;;;;3.88;0.80;;;12.70;99.90;;;;;;5090706;28;20051;-66
2023/10/22 06:40:24;;;;;;;6.03;1.10;;;12.70;99.90;;;;;;5088199;28;20094;-66
2023/10/22 06:42:50;;;;;;;4.20;1.00;;;12.70;99.90;;;;;;5087127;28;20028;-65
2023/10/22 06:45:16;;;;;;;7.90;1.48;;;12.60;99.90;;;;;;5088275;28;20020;-65
2023/10/22 06:47:42;;;;;;;6.15;1.10;;;12.60;99.90;;;;;;5089137;28;20043;-66
2023/10/22 06:50:11;;;;;;;5.40;1.10;;;12.50;99.90;;;;;;5088415;28;20396;-66
2023/10/22 06:52:37;;;;;;;6.57;1.27;;;12.50;99.90;;;;;;5085543;28;20041;-66
2023/10/22 06:55:09;;;;;;;7.22;1.00;;;12.40;99.90;;;;;;5085932;28;20027;-65
2023/10/22 06:57:38;;;;;;;8.18;2.63;;;12.30;99.90;;;;;;5087485;28;20017;-65
2023/10/22 07:00:15;;;;;;;8.15;2.28;;;12.30;99.90;;;;;;5101661;28;20038;-66
2023/10/22 07:02:40;;;;;;;8.10;3.53;;;12.40;99.90;;;;;;5092786;28;20116;-65
2023/10/22 07:05:07;;;;;;;8.30;2.90;;;12.50;99.90;;;;;;5084671;28;20439;-65
2023/10/22 07:07:32;;;;;;;6.03;1.90;;;12.70;99.90;;;;;;5095251;28;20158;-65
2023/10/22 07:09:58;;;;;;;5.68;1.63;;;12.80;99.90;;;;;;5085581;28;20107;-65
2023/10/22 07:12:28;;;;;;;10.43;3.50;;;12.90;99.90;;;;;;5087728;28;20021;-66
2023/10/22 07:14:55;;;;;;;8.30;3.33;;;13.00;99.90;;;;;;5084169;28;20073;-65
2023/10/22 07:17:21;;;;;;;8.10;2.45;;;13.00;99.90;;;;;;5092680;28;20028;-64
2023/10/22 07:19:46;;;;;;;6.25;2.10;;;13.00;99.90;;;;;;5099616;28;20036;-65
2023/10/22 07:22:12;;;;;;;4.47;1.33;;;12.90;99.90;;;;;;5114487;28;20448;-65
2023/10/22 07:24:37;;;;;;;4.40;1.73;;;12.90;99.90;;;;;;5103238;28;20020;-65
2023/10/22 07:27:03;;;;;;;8.73;3.00;;;12.80;99.90;;;;;;5112237;28;20069;-65
2023/10/22 07:29:28;;;;;;;8.23;2.78;;;12.80;99.90;;;;;;5115937;28;20042;-65
2023/10/22 07:31:54;;;;;;;5.70;2.22;;;12.70;99.90;;;;;;5108607;28;20024;-65
2023/10/22 07:34:20;;;;;;;6.40;2.75;;;12.70;99.90;;;;;;5102912;28;20068;-65
2023/10/22 07:36:45;;;;;;;6.40;2.00;;;12.60;99.90;;;;;;5104531;28;20020;-65
2023/10/22 07:39:12;;;;;;;8.38;2.88;;;12.60;99.90;;;;;;5106739;28;20016;-65
2023/10/22 07:41:38;;;;;;;8.60;2.33;;;12.60;99.90;;;;;;5107402;28;20147;-65
2023/10/22 07:44:04;;;;;;;6.93;1.83;;;12.50;99.90;;;;;;5104501;28;20524;-66
2023/10/22 07:46:33;;;;;;;8.43;2.85;;;12.60;99.90;;;;;;5106002;28;20034;-66
2023/10/22 07:49:00;;;;;;;13.93;4.07;;;12.70;99.90;;;;;;5105588;28;20031;-66
2023/10/22 07:51:27;;;;;;;13.00;3.88;;;12.80;99.90;;;;;;5109026;28;20071;-65
2023/10/22 07:53:55;;;;;;;8.77;3.65;;;13.00;99.90;;;;;;5108487;28;20023;-66
2023/10/22 07:56:25;;;;;;;10.02;4.10;;;13.10;99.90;;;;;;5110706;28;20388;-66
2023/10/22 07:58:50;;;;;;;10.57;3.80;;;13.20;99.90;;;;;;5101258;28;20066;-65
2023/10/22 08:01:16;;;;;;;6.07;2.25;;;13.30;99.90;;;;;;5082820;28;20081;-66
2023/10/22 08:03:42;;;;;;;8.50;2.55;;;13.50;99.90;;;;;;5077361;28;20045;-66
2023/10/22 08:06:07;;;;;;;9.13;2.63;;;13.80;99.90;;;;;;5076488;28;20524;-66
2023/10/22 08:08:33;;;;;;;7.25;2.58;;;14.00;99.90;;;;;;5080321;28;20036;-65
2023/10/22 08:11:00;;;;;;;9.65;1.63;;;14.20;99.90;;;;;;5077942;28;20052;-66
2023/10/22 08:13:26;;;;;;;5.88;1.80;;;14.40;99.90;;;;;;5089281;28;20020;-66
2023/10/22 08:15:53;;;;;;;9.82;2.95;;;14.50;99.90;;;;;;5086846;28;20024;-65
2023/10/22 08:18:19;;;;;;;5.80;1.73;;;14.50;99.90;;;;;;5100185;28;20046;-65
2023/10/22 08:20:44;;;;;;;7.03;1.70;;;14.60;99.90;;;;;;5100553;28;20467;-65
2023/10/22 08:23:10;;;;;;;11.77;3.03;;;14.60;99.90;;;;;;5101357;28;20024;-66
2023/10/22 08:25:36;;;;;;;8.40;2.25;;;14.60;99.90;;;;;;5097974;28;20499;-66
2023/10/22 08:28:01;;;;;;;6.25;1.60;;;14.60;99.90;;;;;;5092400;28;20020;-65
2023/10/22 08:30:27;;;;;;;7.15;1.65;;;14.60;99.90;;;;;;5086425;28;20080;-66
2023/10/22 08:32:53;;;;;;;6.05;1.95;;;14.60;99.90;;;;;;5082631;28;20024;-65
2023/10/22 08:35:18;;;;;;;12.57;2.10;;;14.60;99.90;;;;;;5096766;28;20118;-65
2023/10/22 08:37:44;;;;;;;7.68;2.05;;;14.60;99.90;;;;;;5098273;28;20028;-66
2023/10/22 08:40:11;;;;;;;5.70;1.70;;;14.60;99.90;;;;;;5099958;28;20119;-65
2023/10/22 08:42:37;;;;;;;9.50;3.00;;;14.50;99.90;;;;;;5103479;28;20028;-65
2023/10/22 08:45:04;;;;;;;5.50;1.58;;;14.50;99.90;;;;;;5101926;28;20028;-67
2023/10/22 08:47:30;;;;;;;5.22;1.88;;;14.50;99.90;;;;;;5093275;28;20528;-65
2023/10/22 08:49:57;;;;;;;6.95;1.50;;;14.50;99.90;;;;;;5096588;28;20024;-65
2023/10/22 08:52:23;;;;;;;5.38;1.67;;;14.60;99.90;;;;;;5101018;28;20056;-65
2023/10/22 08:54:49;;;;;;;7.15;1.98;;;14.60;99.90;;;;;;5100548;28;20077;-66
2023/10/22 08:57:15;;;;;;;5.53;1.23;;;14.60;99.90;;;;;;5099155;28;20374;-66
2023/10/22 08:59:43;;;;;;;3.10;1.38;;;14.60;99.90;;;;;;5102892;28;20398;-65
2023/10/22 09:02:11;;;;;;;2.20;1.08;;;14.60;99.90;;;;;;5099942;28;20422;-65
2023/10/22 09:04:38;;;;;;;3.63;1.60;;;14.60;99.90;;;;;;5078046;28;20028;-65
2023/10/22 09:07:03;;;;;;;3.25;1.58;;;14.70;99.90;;;;;;5073737;28;20025;-65
2023/10/22 09:09:32;;;;;;;5.10;1.33;;;14.90;99.90;;;;;;5087517;28;20039;-66
2023/10/22 09:11:58;;;;;;;3.63;1.60;;;15.90;99.90;;;;;;5081670;28;20032;-66
2023/10/22 09:14:24;;;;;;;4.57;1.40;;;16.90;99.90;;;;;;5079600;28;20024;-66
2023/10/22 09:16:51;;;;;;;4.85;1.48;;;17.40;99.90;;;;;;5092557;28;20024;-65
2023/10/22 09:19:41;;;;;;;3.92;1.17;;;17.60;99.90;;;;;;5101173;28;20376;-66
2023/10/22 09:22:19;;;;;;;7.05;1.25;;;17.80;99.90;;;;;;5091556;28;20040;-66
2023/10/22 09:24:55;;;;;;;4.55;1.23;;;18.00;99.90;;;;;;5101162;28;20100;-66
2023/10/22 09:27:27;;;;;;;3.20;0.70;;;17.70;99.90;;;;;;5098349;28;20032;-66
2023/10/22 09:29:53;;;;;;;4.68;1.40;;;17.50;99.90;;;;;;5103494;28;20462;-65
2023/10/22 09:32:20;;;;;;;2.05;0.82;;;17.30;99.90;;;;;;5088438;28;20031;-66
2023/10/22 09:34:46;;;;;;;2.40;0.98;;;17.10;99.90;;;;;;5086745;28;20023;-66
2023/10/22 09:37:12;;;;;;;3.28;0.85;;;16.90;99.90;;;;;;5084637;28;20498;-66
2023/10/22 09:39:43;;;;;;;4.10;0.80;;;16.70;99.90;;;;;;5088072;28;20054;-65
2023/10/22 09:42:10;;;;;;;4.28;1.55;;;17.10;99.90;;;;;;5088062;28;20028;-66
2023/10/22 09:44:40;;;;;;;3.75;1.20;;;17.30;99.90;;;;;;5083612;28;20020;-66
2023/10/22 09:47:07;;;;;;;4.93;1.20;;;17.30;99.90;;;;;;5086433;28;20028;-66
2023/10/22 09:49:33;;;;;;;2.83;0.77;;;17.20;99.90;;;;;;5086877;28;20042;-65
2023/10/22 09:52:00;;;;;;;5.05;1.00;;;17.00;99.90;;;;;;5087449;28;20386;-65
2023/10/22 09:54:48;;;;;;;1.80;0.90;;;17.00;99.90;;;;;;5088514;28;20050;-66
2023/10/22 09:57:17;;;;;;;4.53;1.02;;;16.80;99.90;;;;;;5085530;28;20361;-65
2023/10/22 09:59:44;;;;;;;3.72;1.10;;;16.60;99.90;;;;;;5086458;28;20157;-64
2023/10/22 10:02:17;;;;;;;5.82;1.25;;;16.50;99.90;;;;;;5094831;28;20028;-65
2023/10/22 10:04:43;;;;;;;2.90;0.73;;;16.40;99.90;;;;;;5084347;28;20375;-65
2023/10/22 10:07:09;;;;;;;3.50;1.30;;;16.30;99.90;;;;;;5098246;28;20066;-65
2023/10/22 10:09:36;;;;;;;3.90;1.00;;;16.30;99.90;;;;;;5081889;28;20024;-65
2023/10/22 10:12:05;;;;;;;4.82;1.50;;;16.30;99.90;;;;;;5079696;28;20024;-65
2023/10/22 10:14:44;;;;;;;3.53;1.13;;;16.30;99.90;;;;;;5081478;28;20704;-65
2023/10/22 10:17:10;;;;;;;6.70;1.75;;;16.20;99.90;;;;;;5092342;28;20400;-65
2023/10/22 10:19:36;;;;;;;9.15;4.43;;;16.20;99.90;;;;;;5100561;28;20035;-65
2023/10/22 10:22:02;;;;;;;8.35;2.55;;;16.20;99.90;;;;;;5100024;27;20043;-65
2023/10/22 10:24:29;;;;;;;5.22;1.83;;;16.50;99.90;;;;;;5087059;28;20110;-65
2023/10/22 10:26:56;;;;;;;5.25;2.55;;;17.20;99.90;;;;;;5091086;28;20017;-65
2023/10/22 10:29:23;;;;;;;9.95;4.85;;;17.50;99.90;;;;;;5105431;28;20024;-66
2023/10/22 10:31:51;;;;;;;8.95;2.90;;;17.50;99.90;;;;;;5105923;28;20020;-66
2023/10/22 10:34:32;;;;;;;4.00;2.05;;;17.60;99.90;;;;;;5102080;28;20035;-66
2023/10/22 10:37:08;;;;;;;6.32;2.45;;;17.50;99.90;;;;;;5097742;28;20024;-65
2023/10/22 10:39:43;;;;;;;4.13;1.45;;;17.40;99.90;;;;;;5090291;28;20055;-65
2023/10/22 10:42:11;;;;;;;5.38;2.20;;;17.20;99.90;;;;;;5101401;28;20031;-65
2023/10/22 10:44:54;;;;;;;11.00;4.50;;;17.10;99.90;;;;;;5102229;28;20032;-65
2023/10/22 10:47:20;;;;;;;7.15;2.42;;;16.90;99.90;;;;;;5100784;28;20024;-65
2023/10/22 10:50:03;;;;;;;3.90;2.05;;;16.70;99.90;;;;;;5110280;28;20380;-65
2023/10/22 10:52:57;;;;;;;7.25;1.83;;;16.90;99.90;;;;;;5107844;28;20165;-65
2023/10/22 10:55:23;;;;;;;6.90;2.60;;;17.60;99.90;;;;;;5097928;28;20123;-65
2023/10/22 10:57:51;;;;;;;5.93;3.55;;;17.90;99.90;;;;;;5109984;28;20024;-65
2023/10/22 11:00:21;;;;;;;9.27;4.22;;;18.00;99.90;;;;;;5095496;28;20325;-65
2023/10/22 11:02:50;;;;;;;4.50;1.80;;;18.00;99.90;;;;;;5101965;28;20032;-65
2023/10/22 11:05:18;;;;;;;6.03;2.03;;;17.80;99.90;;;;;;5096039;28;20024;-65
2023/10/22 11:07:44;;;;;;;7.90;2.72;;;17.40;99.90;;;;;;5110343;28;20024;-65
2023/10/22 11:10:12;;;;;;;4.00;2.08;;;17.30;99.90;;;;;;5104745;28;20028;-65
2023/10/22 11:12:38;;;;;;;7.03;1.83;;;17.30;99.90;;;;;;5093630;28;20032;-65
2023/10/22 11:15:05;;;;;;;9.20;2.65;;;17.50;99.90;;;;;;5112171;28;20039;-65
2023/10/22 11:17:30;;;;;;;8.00;2.72;;;18.10;99.90;;;;;;5082568;28;20151;-65
2023/10/22 11:19:56;;;;;;;8.10;2.10;;;18.40;99.90;;;;;;5108269;28;20038;-65
2023/10/22 11:22:23;;;;;;;5.10;2.00;;;18.40;99.90;;;;;;5106082;28;20026;-65
2023/10/22 11:24:49;;;;;;;5.28;2.97;;;18.20;99.90;;;;;;5096486;28;20036;-65
2023/10/22 11:27:16;;;;;;;7.63;2.20;;;18.00;99.90;;;;;;5094508;28;20089;-67
2023/10/22 11:29:44;;;;;;;9.25;2.20;;;17.80;99.90;;;;;;5113354;28;20068;-66
2023/10/22 11:32:14;;;;;;;7.57;2.35;;;17.60;99.90;;;;;;5106216;28;20024;-66
2023/10/22 11:34:52;;;;;;;4.68;1.85;;;17.30;99.90;;;;;;5108024;28;20479;-67
2023/10/22 11:37:27;;;;;;;6.63;1.88;;;17.10;99.90;;;;;;5098173;28;20035;-67
2023/10/22 11:39:52;;;;;;;8.38;2.05;;;17.00;99.90;;;;;;5095818;28;20033;-67
2023/10/22 11:42:18;;;;;;;6.85;2.97;;;16.90;99.90;;;;;;5080554;28;20036;-66
2023/10/22 11:44:45;;;;;;;7.07;2.25;;;17.20;99.90;;;;;;5082467;28;20114;-65
2023/10/22 11:47:27;;;;;;;9.48;3.20;;;17.70;99.90;;;;;;5083021;28;20127;-65
2023/10/22 11:49:54;;;;;;;12.52;4.15;;;17.70;99.90;;;;;;5089555;28;20024;-65
2023/10/22 11:52:36;;;;;;;10.10;3.17;;;17.60;99.90;;;;;;5080336;28;20079;-65
2023/10/22 11:55:03;;;;;;;7.53;2.83;;;17.40;99.90;;;;;;5077888;28;20104;-66
2023/10/22 11:57:30;;;;;;;4.68;2.10;;;17.50;99.90;;;;;;5085291;28;20034;-65
2023/10/22 11:59:56;;;;;;;10.30;3.53;;;18.20;99.90;;;;;;5083371;28;20452;-66
2023/10/22 12:02:22;;;;;;;6.10;2.20;;;19.00;99.90;;;;;;5090868;28;20079;-65
2023/10/22 12:04:48;;;;;;;8.02;2.00;;;19.90;99.90;;;;;;5081661;28;20032;-65
2023/10/22 12:07:13;;;;;;;9.65;2.65;;;20.60;99.90;;;;;;5110711;28;20159;-66
2023/10/22 12:09:43;;;;;;;4.70;0.90;;;20.90;99.90;;;;;;5099319;28;20376;-66
2023/10/22 12:12:08;;;;;;;5.68;1.05;;;21.40;99.60;;;;;;5098220;28;20048;-66
2023/10/22 12:14:34;;;;;;;2.78;1.27;;;21.80;99.80;;;;;;5106551;28;20066;-66
2023/10/22 12:16:59;;;;;;;3.80;1.77;;;21.90;99.10;;;;;;5098489;28;20059;-66
2023/10/22 12:19:25;;;;;;;5.05;2.08;;;21.90;98.20;;;;;;5110891;28;20062;-66
2023/10/22 12:21:50;;;;;;;6.70;1.40;;;22.00;97.80;;;;;;5090923;28;20039;-66
2023/10/22 12:24:16;;;;;;;5.07;1.65;;;22.00;97.00;;;;;;5080167;28;20413;-66
2023/10/22 12:26:42;;;;;;;4.78;1.40;;;21.70;97.40;;;;;;5086896;28;20117;-65
2023/10/22 12:29:07;;;;;;;4.20;1.02;;;21.50;98.60;;;;;;5101969;28;20024;-66
2023/10/22 12:31:33;;;;;;;2.58;1.10;;;21.70;98.50;;;;;;5089209;28;20024;-65
2023/10/22 12:33:59;;;;;;;3.00;1.10;;;22.00;97.60;;;;;;5099073;28;20157;-66
2023/10/22 12:36:25;;;;;;;6.55;1.85;;;22.00;97.20;;;;;;5102809;28;20016;-66
2023/10/22 12:38:54;;;;;;;6.07;1.35;;;21.60;97.50;;;;;;5097520;28;20028;-67
2023/10/22 12:41:21;;;;;;;3.85;1.80;;;21.40;97.70;;;;;;5100420;28;20032;-67